createdAt,value
2023-12-18T13:52:36.154Z,600.00
2023-12-18T15:00:11.160Z,600.00
2023-12-18T15:00:56.884Z,600.00
2023-12-18T15:01:59.366Z,600.00
2023-12-18T15:02:56.728Z,600.00
2023-12-18T15:03:56.680Z,600.00
2023-12-18T15:04:56.726Z,600.00
2023-12-18T15:05:56.288Z,600.00
2023-12-18T15:06:56.282Z,600.00
2023-12-18T15:07:57.496Z,600.00
2023-12-18T15:08:56.156Z,600.00
2023-12-18T15:09:56.116Z,597.00
2023-12-18T15:10:56.165Z,600.00
2023-12-18T15:11:55.878Z,598.00
2023-12-18T15:12:55.887Z,602.00
2023-12-18T15:13:55.740Z,596.00
2023-12-18T15:14:55.675Z,600.00
2023-12-18T15:15:55.609Z,600.00
2023-12-18T15:16:55.527Z,600.00
2023-12-18T15:17:55.477Z,600.00
2023-12-18T15:18:55.412Z,600.00
2023-12-18T15:21:55.205Z,600.00
2023-12-18T15:22:54.895Z,603.00
2023-12-18T15:23:54.818Z,603.00
2023-12-18T15:24:54.738Z,593.00
2023-12-18T15:25:54.584Z,573.00
2023-12-18T15:26:54.494Z,568.00
2023-12-18T15:27:54.460Z,593.00
2023-12-18T15:28:54.291Z,600.00
2023-12-18T15:29:54.215Z,600.00
2023-12-18T15:30:54.227Z,600.00
2023-12-18T15:31:54.037Z,600.00
2023-12-18T15:32:53.943Z,600.00
2023-12-18T15:33:53.980Z,600.00
2023-12-18T15:34:53.803Z,600.00
2023-12-18T15:35:56.763Z,600.00
2023-12-18T15:36:54.604Z,600.00
2023-12-18T15:37:53.417Z,597.00
2023-12-18T15:38:53.326Z,591.00
2023-12-18T15:39:53.291Z,581.00
2023-12-18T15:40:53.083Z,582.00
2023-12-18T15:41:53.032Z,575.00
2023-12-18T15:42:53.652Z,570.00
2023-12-18T15:43:52.889Z,566.00
2023-12-18T15:44:52.689Z,556.00
2023-12-18T15:45:52.595Z,584.00
2023-12-18T15:46:52.487Z,599.00
2023-12-18T15:47:52.451Z,600.00
2023-12-18T15:48:52.377Z,601.00
2023-12-18T15:49:52.438Z,600.00
2023-12-18T15:50:52.106Z,603.00
2023-12-18T15:51:52.046Z,600.00
2023-12-18T15:52:51.926Z,600.00
2023-12-18T15:53:51.789Z,600.00
2023-12-18T15:54:51.700Z,603.00
2023-12-18T15:55:51.615Z,601.00
2023-12-18T15:56:51.478Z,600.00
2023-12-18T15:57:51.472Z,602.00
2023-12-18T15:58:51.662Z,600.00
2023-12-18T15:59:51.177Z,600.00
2023-12-18T16:00:52.073Z,598.00
2023-12-18T16:01:51.030Z,592.00
2023-12-18T16:02:50.897Z,586.00
2023-12-18T16:03:50.888Z,587.00
2023-12-18T16:04:50.704Z,603.00
2023-12-18T16:05:50.580Z,602.00
2023-12-18T16:06:50.596Z,600.00
2023-12-18T16:07:50.380Z,602.00
2023-12-18T16:08:50.272Z,602.00
2023-12-18T16:09:50.484Z,600.00
2023-12-18T16:10:50.108Z,600.00
2023-12-18T16:11:49.966Z,599.00
2023-12-18T16:12:49.974Z,595.00
2023-12-18T16:13:49.771Z,599.00
2023-12-18T16:14:49.661Z,589.00
2023-12-18T16:15:49.588Z,589.00
2023-12-18T16:16:49.466Z,588.00
2023-12-18T16:17:49.439Z,582.00
2023-12-18T16:18:49.315Z,601.00
2023-12-18T16:19:49.276Z,601.00
2023-12-18T16:20:49.125Z,604.00
2023-12-18T16:21:48.959Z,602.00
2023-12-18T16:22:48.848Z,600.00
2023-12-18T16:23:48.716Z,601.00
2023-12-18T16:24:48.677Z,600.00
2023-12-18T16:25:48.551Z,600.00
2023-12-18T16:26:48.452Z,604.00
2023-12-18T16:27:48.332Z,600.00
2023-12-18T16:28:48.176Z,600.00
2023-12-18T16:29:48.050Z,603.00
2023-12-18T16:30:56.065Z,600.00
2023-12-18T16:31:48.877Z,600.00
2023-12-18T16:32:47.757Z,600.00
2023-12-18T16:33:47.707Z,599.00
2023-12-18T16:34:47.672Z,599.00
2023-12-18T16:35:47.456Z,597.00
2023-12-18T16:36:47.354Z,597.00
2023-12-18T16:37:47.200Z,594.00
2023-12-18T16:38:47.109Z,591.00
2023-12-18T16:39:46.993Z,605.00
2023-12-18T16:40:46.877Z,605.00
2023-12-18T16:41:46.774Z,601.00
2023-12-18T16:42:47.202Z,602.00
2023-12-18T16:43:46.575Z,601.00
2023-12-18T16:44:46.447Z,597.00
2023-12-18T16:45:46.446Z,603.00
2023-12-18T16:46:46.224Z,600.00
2023-12-18T16:47:46.262Z,601.00
2023-12-18T16:48:46.123Z,603.00
2023-12-18T16:49:46.041Z,602.00
2023-12-18T16:50:46.171Z,602.00
2023-12-18T16:51:45.760Z,602.00
2023-12-18T16:52:45.619Z,603.00
2023-12-18T16:53:45.500Z,599.00
2023-12-18T16:54:45.479Z,595.00
2023-12-18T16:55:45.329Z,604.00
2023-12-18T16:56:45.187Z,604.00
2023-12-18T16:57:45.116Z,600.00
2023-12-18T16:58:44.996Z,603.00
2023-12-18T16:59:44.895Z,600.00
2023-12-18T17:00:44.828Z,594.00
2023-12-18T17:01:44.692Z,595.00
2023-12-18T17:02:44.775Z,593.00
2023-12-18T17:03:44.551Z,602.00
2023-12-18T17:04:44.419Z,602.00
2023-12-18T17:05:44.280Z,601.00
2023-12-18T17:06:44.172Z,601.00
2023-12-18T17:07:44.085Z,602.00
2023-12-18T17:08:43.932Z,602.00
2023-12-18T17:09:43.868Z,603.00
2023-12-18T17:10:43.825Z,601.00
2023-12-18T17:11:43.744Z,600.00
2023-12-18T17:12:43.972Z,602.00
2023-12-18T17:13:43.573Z,604.00
2023-12-18T17:14:43.481Z,604.00
2023-12-18T17:15:43.527Z,602.00
2023-12-18T17:16:43.355Z,607.00
2023-12-18T17:17:43.339Z,601.00
2023-12-18T17:18:43.256Z,605.00
2023-12-18T17:19:43.179Z,605.00
2023-12-18T17:20:43.171Z,602.00
2023-12-18T17:21:43.705Z,604.00
2023-12-18T17:22:43.899Z,604.00
2023-12-18T17:23:43.088Z,603.00
2023-12-18T17:24:43.105Z,601.00
2023-12-18T17:25:42.999Z,600.00
2023-12-18T17:26:42.751Z,599.00
2023-12-18T17:27:42.652Z,600.00
2023-12-18T17:28:42.566Z,594.00
2023-12-18T17:29:42.479Z,597.00
2023-12-18T17:30:42.377Z,596.00
2023-12-18T17:31:42.364Z,603.00
2023-12-18T17:32:42.273Z,601.00
2023-12-18T17:33:42.161Z,600.00
2023-12-18T17:34:42.048Z,604.00
2023-12-18T17:35:41.919Z,604.00
2023-12-18T17:36:41.844Z,601.00
2023-12-18T17:37:41.907Z,602.00
2023-12-18T17:38:41.654Z,602.00
2023-12-18T17:39:41.591Z,602.00
2023-12-18T17:40:41.456Z,602.00
2023-12-18T17:41:41.330Z,600.00
2023-12-18T17:42:41.435Z,598.00
2023-12-18T17:43:41.096Z,596.00
2023-12-18T17:44:40.975Z,600.00
2023-12-18T17:45:40.917Z,604.00
2023-12-18T17:46:40.775Z,600.00
2023-12-18T17:47:42.245Z,601.00
2023-12-18T17:48:40.655Z,601.00
2023-12-18T17:49:40.567Z,602.00
2023-12-18T17:50:40.533Z,603.00
2023-12-18T17:51:40.457Z,600.00
2023-12-18T17:52:40.351Z,600.00
2023-12-18T17:53:40.220Z,601.00
2023-12-18T17:54:40.208Z,600.00
2023-12-18T17:55:40.021Z,595.00
2023-12-18T17:56:39.911Z,599.00
2023-12-18T17:57:39.957Z,604.00
2023-12-18T17:58:39.687Z,600.00
2023-12-18T17:59:39.606Z,603.00
2023-12-18T18:00:39.574Z,603.00
2023-12-18T18:01:39.530Z,601.00
2023-12-18T18:02:39.435Z,604.00
2023-12-18T18:03:39.442Z,602.00
2023-12-18T18:04:39.409Z,603.00
2023-12-18T18:05:39.392Z,602.00
2023-12-18T18:06:39.256Z,601.00
2023-12-18T18:07:39.204Z,601.00
2023-12-18T18:08:39.188Z,602.00
2023-12-18T18:09:39.101Z,600.00
2023-12-18T18:10:39.045Z,603.00
2023-12-18T18:11:39.105Z,600.00
2023-12-18T18:12:39.032Z,605.00
2023-12-18T18:13:38.945Z,607.00
2023-12-18T18:14:38.876Z,605.00
2023-12-18T18:15:38.900Z,603.00
2023-12-18T18:16:38.838Z,600.00
2023-12-18T18:17:38.781Z,602.00
2023-12-18T18:18:38.933Z,603.00
2023-12-18T18:19:38.777Z,604.00
2023-12-18T18:20:38.695Z,607.00
2023-12-18T18:21:38.679Z,605.00
2023-12-18T18:22:38.600Z,602.00
2023-12-18T18:23:38.632Z,603.00
2023-12-18T18:24:38.577Z,601.00
2023-12-18T18:25:40.287Z,602.00
2023-12-18T18:26:38.405Z,602.00
2023-12-18T18:27:38.402Z,608.00
2023-12-18T18:28:38.347Z,603.00
2023-12-18T18:29:38.334Z,606.00
2023-12-18T18:30:38.343Z,607.00
2023-12-18T18:31:38.324Z,601.00
2023-12-18T18:32:38.187Z,604.00
2023-12-18T18:33:38.127Z,605.00
2023-12-18T18:34:38.330Z,600.00
2023-12-18T18:35:37.892Z,600.00
2023-12-18T18:36:37.806Z,601.00
2023-12-18T19:00:12.021Z,600.00
2023-12-18T19:00:45.077Z,600.00
2023-12-18T19:01:45.013Z,600.00
2023-12-18T19:02:45.002Z,600.00
2023-12-18T19:03:45.093Z,600.00
2023-12-18T19:04:45.181Z,600.00
2023-12-18T19:05:45.020Z,600.00
2023-12-18T19:06:45.005Z,600.00
2023-12-18T19:07:45.348Z,600.00
2023-12-18T19:08:45.003Z,600.00
2023-12-18T19:09:45.050Z,599.00
2023-12-18T19:10:45.025Z,600.00
2023-12-18T19:11:45.035Z,600.00
2023-12-18T19:12:45.071Z,600.00
2023-12-18T19:13:45.030Z,603.00
2023-12-18T19:14:45.161Z,600.00
2023-12-18T19:15:45.262Z,600.00
2023-12-18T19:16:45.247Z,601.00
2023-12-18T19:17:45.528Z,601.00
2023-12-18T19:18:45.423Z,602.00
2023-12-18T19:19:45.547Z,599.00
2023-12-18T19:20:45.589Z,603.00
2023-12-18T19:21:45.631Z,606.00
2023-12-18T19:22:45.567Z,600.00
2023-12-18T19:23:45.636Z,603.00
2023-12-18T19:24:45.726Z,603.00
2023-12-18T19:25:45.733Z,602.00
2023-12-18T19:26:45.801Z,605.00
2023-12-18T19:27:46.062Z,602.00
2023-12-18T19:28:45.915Z,603.00
2023-12-18T19:29:46.002Z,605.00
2023-12-18T19:30:46.119Z,605.00
2023-12-18T19:31:46.221Z,602.00
2023-12-18T19:32:46.052Z,599.00
2023-12-18T19:33:46.060Z,600.00
2023-12-18T19:34:46.102Z,595.00
2023-12-18T19:35:46.016Z,600.00
2023-12-18T19:36:46.035Z,604.00
2023-12-18T19:37:46.038Z,603.00
2023-12-18T19:38:46.033Z,599.00
2023-12-18T19:39:46.096Z,603.00
2023-12-18T19:40:46.036Z,596.00
2023-12-18T19:41:46.041Z,598.00
2023-12-18T19:42:46.091Z,604.00
2023-12-18T19:43:46.067Z,600.00
2023-12-18T19:44:46.057Z,597.00
2023-12-18T19:45:46.185Z,596.00
2023-12-18T19:46:46.076Z,595.00
2023-12-18T19:47:46.416Z,601.00
2023-12-18T19:48:46.211Z,602.00
2023-12-18T19:49:46.228Z,607.00
2023-12-18T19:50:46.319Z,607.00
2023-12-18T19:51:46.124Z,603.00
2023-12-18T19:52:46.100Z,602.00
2023-12-18T19:53:46.132Z,599.00
2023-12-18T19:54:46.203Z,599.00
2023-12-18T19:55:46.134Z,604.00
2023-12-18T19:56:46.124Z,604.00
2023-12-18T19:57:46.160Z,604.00
2023-12-18T19:58:46.155Z,602.00
2023-12-18T19:59:46.223Z,599.00
2023-12-18T20:00:46.329Z,600.00
2023-12-18T20:01:46.193Z,600.00
2023-12-18T20:02:46.210Z,600.00
2023-12-18T20:03:46.273Z,603.00
2023-12-18T20:04:46.203Z,604.00
2023-12-18T20:05:46.213Z,606.00
2023-12-18T20:06:46.300Z,609.00
2023-12-18T20:07:46.287Z,610.00
2023-12-18T20:08:46.283Z,606.00
2023-12-18T20:09:46.383Z,608.00
2023-12-18T20:10:46.421Z,608.00
2023-12-18T20:11:46.489Z,611.00
2023-12-18T20:12:46.913Z,605.00
2023-12-18T20:13:46.561Z,606.00
2023-12-18T20:14:46.575Z,606.00
2023-12-18T20:15:46.659Z,603.00
2023-12-18T20:16:48.200Z,603.00
2023-12-18T20:17:46.686Z,605.00
2023-12-18T20:18:46.699Z,606.00
2023-12-18T20:19:46.748Z,602.00
2023-12-18T20:20:46.636Z,604.00
2023-12-18T20:21:46.716Z,604.00
2023-12-18T20:22:46.956Z,604.00
2023-12-18T20:23:46.662Z,604.00
2023-12-18T20:24:46.672Z,602.00
2023-12-18T20:25:46.667Z,601.00
2023-12-18T20:26:47.678Z,603.00
2023-12-18T20:27:46.688Z,605.00
2023-12-18T20:28:46.660Z,605.00
2023-12-18T20:29:46.672Z,605.00
2023-12-18T20:30:46.726Z,604.00
2023-12-18T20:31:46.739Z,605.00
2023-12-18T20:32:47.013Z,605.00
2023-12-18T20:33:46.783Z,602.00
2023-12-18T20:34:46.792Z,602.00
2023-12-18T20:35:46.762Z,601.00
2023-12-18T20:36:46.745Z,602.00
2023-12-18T20:37:46.738Z,600.00
2023-12-18T20:38:46.773Z,604.00
2023-12-18T20:39:46.800Z,604.00
2023-12-18T20:40:46.781Z,602.00
2023-12-18T20:41:46.746Z,608.00
2023-12-18T20:42:46.939Z,602.00
2023-12-18T20:43:46.775Z,602.00
2023-12-18T20:44:46.831Z,602.00
2023-12-18T20:45:46.929Z,604.00
2023-12-18T20:46:46.938Z,607.00
2023-12-18T20:47:47.004Z,605.00
2023-12-18T20:48:47.120Z,601.00
2023-12-18T20:49:47.230Z,607.00
2023-12-18T20:50:47.152Z,603.00
2023-12-18T20:51:47.237Z,604.00
2023-12-18T20:52:47.256Z,601.00
2023-12-18T20:53:47.273Z,604.00
2023-12-18T20:54:47.382Z,604.00
2023-12-18T20:55:47.381Z,605.00
2023-12-18T20:56:47.434Z,607.00
2023-12-18T20:57:47.552Z,607.00
2023-12-18T20:58:47.551Z,606.00
2023-12-18T20:59:51.167Z,607.00
2023-12-18T21:00:48.680Z,607.00
2023-12-18T21:01:47.803Z,607.00
2023-12-18T21:02:47.610Z,607.00
2023-12-18T21:03:47.700Z,607.00
2023-12-18T21:04:47.633Z,600.00
2023-12-18T21:05:47.623Z,603.00
2023-12-18T21:06:47.668Z,605.00
2023-12-18T21:07:47.614Z,605.00
2023-12-18T21:08:47.603Z,604.00
2023-12-18T21:09:47.653Z,604.00
2023-12-18T21:10:47.639Z,600.00
2023-12-18T21:11:47.669Z,607.00
2023-12-18T21:12:47.989Z,603.00
2023-12-18T21:13:47.772Z,607.00
2023-12-18T21:14:47.866Z,607.00
2023-12-18T21:15:47.946Z,607.00
2023-12-18T21:16:47.942Z,603.00
2023-12-18T21:17:48.015Z,606.00
2023-12-18T21:18:48.058Z,603.00
2023-12-18T21:19:48.136Z,607.00
2023-12-18T21:20:48.178Z,604.00
2023-12-18T21:21:48.190Z,604.00
2023-12-18T21:22:48.541Z,602.00
2023-12-18T21:23:48.174Z,605.00
2023-12-18T21:24:48.204Z,600.00
2023-12-18T21:25:48.157Z,606.00
2023-12-18T21:26:48.168Z,602.00
2023-12-18T21:27:48.317Z,607.00
2023-12-18T21:28:48.152Z,605.00
2023-12-18T21:29:48.152Z,605.00
2023-12-18T21:30:48.220Z,606.00
2023-12-18T21:31:48.204Z,605.00
2023-12-18T21:32:48.354Z,598.00
2023-12-18T21:33:48.217Z,603.00
2023-12-18T21:34:48.194Z,604.00
2023-12-18T21:35:48.166Z,601.00
2023-12-18T21:36:50.570Z,608.00
2023-12-18T21:37:48.163Z,601.00
2023-12-18T21:38:48.173Z,604.00
2023-12-18T21:39:48.242Z,604.00
2023-12-18T21:40:48.179Z,604.00
2023-12-18T21:41:48.181Z,604.00
2023-12-18T21:42:48.213Z,606.00
2023-12-18T21:43:48.189Z,604.00
2023-12-18T21:44:48.213Z,604.00
2023-12-18T21:45:48.240Z,604.00
2023-12-18T21:46:48.203Z,605.00
2023-12-18T21:47:48.308Z,603.00
2023-12-18T21:48:48.363Z,604.00
2023-12-18T21:49:48.224Z,603.00
2023-12-18T21:50:48.233Z,606.00
2023-12-18T21:51:48.244Z,606.00
2023-12-18T21:52:48.230Z,603.00
2023-12-18T21:53:48.229Z,607.00
2023-12-18T21:54:48.280Z,604.00
2023-12-18T21:55:48.291Z,609.00
2023-12-18T21:56:48.284Z,606.00
2023-12-18T21:57:48.371Z,604.00
2023-12-18T21:58:48.345Z,604.00
2023-12-18T21:59:48.339Z,605.00
2023-12-18T22:00:48.410Z,605.00
2023-12-18T22:01:48.448Z,604.00
2023-12-18T22:02:48.365Z,604.00
2023-12-18T22:03:48.482Z,603.00
2023-12-18T22:04:48.416Z,607.00
2023-12-18T22:05:48.447Z,603.00
2023-12-18T22:06:48.455Z,602.00
2023-12-18T22:07:48.444Z,600.00
2023-12-18T22:08:48.437Z,600.00
2023-12-18T22:09:48.527Z,601.00
2023-12-18T22:10:48.443Z,604.00
2023-12-18T22:11:48.465Z,603.00
2023-12-18T22:12:48.571Z,608.00
2023-12-18T22:13:48.554Z,604.00
2023-12-18T22:14:48.621Z,602.00
2023-12-18T22:15:48.672Z,602.00
2023-12-18T22:16:48.700Z,602.00
2023-12-18T22:17:48.765Z,603.00
2023-12-18T22:18:48.937Z,606.00
2023-12-18T22:19:49.013Z,601.00
2023-12-18T22:20:54.041Z,605.00
2023-12-18T22:21:49.928Z,605.00
2023-12-18T22:22:48.908Z,606.00
2023-12-18T22:23:48.910Z,606.00
2023-12-18T22:24:48.955Z,606.00
2023-12-18T22:25:48.930Z,606.00
2023-12-18T22:26:52.119Z,604.00
2023-12-18T22:27:49.034Z,607.00
2023-12-18T22:28:48.929Z,611.00
2023-12-18T22:29:48.955Z,605.00
2023-12-18T22:30:49.395Z,600.00
2023-12-18T22:31:49.020Z,607.00
2023-12-18T22:32:48.978Z,604.00
2023-12-18T22:33:49.057Z,603.00
2023-12-18T22:34:49.277Z,606.00
2023-12-18T22:35:49.001Z,606.00
2023-12-18T22:36:49.029Z,602.00
2023-12-18T22:37:49.829Z,600.00
2023-12-18T22:38:52.838Z,607.00
2023-12-18T22:39:49.089Z,607.00
2023-12-18T22:40:49.065Z,603.00
2023-12-18T22:41:49.019Z,606.00
2023-12-18T22:42:49.086Z,602.00
2023-12-18T22:43:49.062Z,599.00
2023-12-18T22:44:49.080Z,603.00
2023-12-18T22:45:49.148Z,605.00
2023-12-18T22:46:49.057Z,602.00
2023-12-18T22:47:49.118Z,607.00
2023-12-18T22:48:49.326Z,603.00
2023-12-18T22:49:49.157Z,604.00
2023-12-18T22:50:49.119Z,600.00
2023-12-18T22:51:49.177Z,604.00
2023-12-18T22:52:49.141Z,604.00
2023-12-18T22:53:49.170Z,600.00
2023-12-18T22:54:49.291Z,601.00
2023-12-18T22:55:49.282Z,607.00
2023-12-18T22:56:49.333Z,608.00
2023-12-18T22:57:49.422Z,605.00
2023-12-18T22:58:49.373Z,606.00
2023-12-18T22:59:49.375Z,605.00
2023-12-18T23:00:49.433Z,605.00
2023-12-18T23:01:49.449Z,604.00
2023-12-18T23:02:49.393Z,605.00
2023-12-18T23:03:49.432Z,601.00
2023-12-18T23:04:49.630Z,606.00
2023-12-18T23:05:49.526Z,609.00
2023-12-18T23:06:49.495Z,603.00
2023-12-18T23:07:49.431Z,600.00
2023-12-18T23:08:49.434Z,606.00
2023-12-18T23:09:49.560Z,604.00
2023-12-18T23:10:49.473Z,605.00
2023-12-18T23:11:49.497Z,605.00
2023-12-18T23:12:56.812Z,600.00
2023-12-18T23:13:56.838Z,600.00
2023-12-18T23:14:56.845Z,600.00
2023-12-18T23:15:56.932Z,600.00
2023-12-18T23:16:56.880Z,600.00
2023-12-18T23:17:56.925Z,603.00
2023-12-18T23:18:57.060Z,603.00
2023-12-18T23:19:56.968Z,603.00
2023-12-18T23:20:56.965Z,604.00
2023-12-18T23:21:56.972Z,599.00
2023-12-18T23:22:57.052Z,598.00
2023-12-18T23:23:56.997Z,607.00
2023-12-18T23:24:57.119Z,602.00
2023-12-18T23:25:57.067Z,605.00
2023-12-18T23:26:57.089Z,604.00
2023-12-18T23:27:57.176Z,608.00
2023-12-18T23:28:57.129Z,603.00
2023-12-18T23:29:57.100Z,605.00
2023-12-18T23:30:57.234Z,606.00
2023-12-18T23:31:57.134Z,604.00
2023-12-18T23:32:57.211Z,603.00
2023-12-18T23:33:57.237Z,601.00
2023-12-18T23:34:57.259Z,601.00
2023-12-18T23:35:57.212Z,601.00
2023-12-18T23:36:57.316Z,603.00
2023-12-18T23:37:57.205Z,602.00
2023-12-18T23:38:57.236Z,607.00
2023-12-18T23:39:57.279Z,606.00
2023-12-18T23:40:57.304Z,606.00
2023-12-18T23:41:57.287Z,608.00
2023-12-18T23:42:57.311Z,605.00
2023-12-18T23:43:57.321Z,606.00
2023-12-18T23:44:57.325Z,606.00
2023-12-18T23:45:57.384Z,600.00
2023-12-18T23:46:57.371Z,601.00
2023-12-18T23:47:57.414Z,605.00
2023-12-18T23:48:57.443Z,607.00
2023-12-18T23:49:57.393Z,602.00
2023-12-18T23:50:57.387Z,602.00
2023-12-18T23:51:57.508Z,601.00
2023-12-18T23:52:57.407Z,601.00
2023-12-18T23:53:57.443Z,601.00
2023-12-18T23:54:57.535Z,601.00
2023-12-18T23:55:57.452Z,601.00
2023-12-18T23:56:57.466Z,602.00
2023-12-18T23:57:57.565Z,602.00
2023-12-18T23:58:57.491Z,604.00
2023-12-18T23:59:57.493Z,604.00
